Sylvan Beach, Texas
Current Conditions -  °F | °C
As of 7:50 AM on Saturday 01 Nov 2014 (Local Time) from KEFD Reporting Station
Clear Clear  
Wind Chill: 52°   Ceiling: Unl
Heat Index: 52°   Visibility: 10mi
Dew Point: 45°   Wind: 9mph
Humidity: 76%   Direction: 30°NNE
Pressure: 30.4"   Gusts: NA
Location:  29.6785°N, 95.0483°W
Report Text: KEFD 011250Z 03008KT 10SM CLR 11/07 A3040
Loading
Personal Weather Stations






























Interactive Weather Map New forecast layout! Learn more

10-Day Weather Forecast

Advertisements
Track Severe Weather on mobile